Time;durP1;ratioP1;P1;durP2;ratioP2;P2;SDS_P1;SDS_P2;PMS_P1;PMS_P2;Temp;Humidity;BMP_temperature;BMP_pressure;BME280_temperature;BME280_humidity;BME280_pressure;Samples;Min_cycle;Max_cycle;Signal;HPM_P1;HPM_P2
2022/05/05 00:00:33;;;;;;;15.85;11.07;;;;;;;9.52;nan;101920.00;5035252;28;20092;-47
2022/05/05 00:02:59;;;;;;;17.63;10.60;;;;;;;9.55;nan;101913.81;5017300;28;20479;-45
2022/05/05 00:05:24;;;;;;;14.93;10.43;;;;;;;9.59;nan;101921.69;5034942;28;20132;-46
2022/05/05 00:07:49;;;;;;;14.70;9.70;;;;;;;9.67;nan;101921.56;5035208;28;20037;-47
2022/05/05 00:15:42;;;;;;;12.60;9.38;;;;;;;9.41;nan;101857.91;5034861;28;20124;-50
2022/05/05 00:18:08;;;;;;;15.75;9.65;;;;;;;9.76;nan;101915.34;5017341;28;20120;-45
2022/05/05 00:20:33;;;;;;;17.17;9.85;;;;;;;9.84;nan;101919.63;5034804;28;20033;-46
2022/05/05 00:22:58;;;;;;;15.25;10.23;;;;;;;9.84;nan;101921.38;5034836;28;20041;-45
2022/05/05 00:25:24;;;;;;;14.48;9.43;;;;;;;9.53;nan;101863.91;5033943;28;20053;-44
2022/05/05 00:27:49;;;;;;;18.58;9.98;;;;;;;9.78;nan;101913.59;5034548;28;20116;-48
2022/05/05 00:30:14;;;;;;;16.08;9.95;;;;;;;9.70;nan;101907.53;5034340;28;20036;-45
2022/05/05 00:32:40;;;;;;;14.52;9.95;;;;;;;9.67;nan;101923.31;5034651;28;20033;-46
2022/05/05 00:35:05;;;;;;;19.48;9.25;;;;;;;9.24;nan;101859.88;5034472;28;20037;-47
2022/05/05 00:37:31;;;;;;;16.15;9.05;;;;;;;9.53;nan;101921.75;5034398;28;20048;-48
2022/05/05 00:39:56;;;;;;;14.77;9.88;;;;;;;9.11;nan;101858.28;5034660;28;20396;-48
2022/05/05 00:42:22;;;;;;;16.38;10.05;;;;;;;9.42;nan;101915.72;5034166;28;20083;-46
2022/05/05 00:44:47;;;;;;;16.33;10.02;;;;;;;9.40;nan;101917.50;5016559;28;20128;-46
2022/05/05 00:47:16;;;;;;;13.40;9.48;;;;;;;9.09;nan;101867.91;5034443;28;20041;-42
2022/05/05 00:49:45;;;;;;;12.80;9.68;;;;;;;9.32;nan;101915.81;5034469;28;20119;-45
2022/05/05 00:52:10;;;;;;;15.30;10.48;;;;;;;9.27;nan;101913.25;5016505;28;20476;-45
2022/05/05 00:54:35;;;;;;;13.20;9.55;;;;;;;9.24;nan;101917.66;5034276;28;20033;-47
2022/05/05 00:57:01;;;;;;;13.00;9.95;;;;;;;9.21;nan;101910.69;5034121;28;20037;-50
2022/05/05 00:59:26;;;;;;;15.90;10.63;;;;;;;9.19;nan;101916.84;5033983;28;20042;-47
2022/05/05 01:01:51;;;;;;;16.92;10.48;;;;;;;8.80;nan;101847.19;5016439;28;20041;-46
2022/05/05 01:04:16;;;;;;;15.85;10.00;;;;;;;8.73;nan;101841.09;5034121;28;20035;-45
2022/05/05 01:06:42;;;;;;;15.70;10.30;;;;;;;9.16;nan;101898.50;5033881;28;20068;-46
2022/05/05 01:09:07;;;;;;;15.45;10.60;;;;;;;8.78;nan;101831.47;5033793;28;20041;-44
2022/05/05 01:11:33;;;;;;;13.93;10.77;;;;;;;9.19;nan;101903.72;5033749;28;20044;-48
2022/05/05 01:13:58;;;;;;;18.00;10.40;;;;;;;9.16;nan;101891.47;5034075;28;20034;-44
2022/05/05 01:16:23;;;;;;;15.38;9.20;;;;;;;8.83;nan;101831.41;5033857;28;20060;-49
2022/05/05 01:18:51;;;;;;;16.90;9.95;;;;;;;9.14;nan;101894.97;5016187;28;20033;-44
2022/05/05 01:21:20;;;;;;;13.02;10.15;;;;;;;8.87;nan;101836.59;5016232;28;20044;-46
2022/05/05 01:23:45;;;;;;;15.95;10.60;;;;;;;8.98;nan;101847.88;5033685;28;20025;-50
2022/05/05 01:28:54;;;;;;;16.02;10.23;;;;;;;8.95;nan;101841.78;5034072;28;20052;-47
2022/05/05 01:31:20;;;;;;;15.07;10.30;;;;;;;9.23;nan;101873.88;5015744;28;20341;-48
2022/05/05 01:33:45;;;;;;;12.90;9.13;;;;;;;9.24;nan;101880.88;5015719;28;20411;-45
2022/05/05 01:36:11;;;;;;;14.50;10.30;;;;;;;9.35;nan;101895.66;5015729;28;20314;-48
2022/05/05 01:38:37;;;;;;;14.80;10.15;;;;;;;9.37;nan;101893.88;5033278;28;20038;-46
2022/05/05 01:41:04;;;;;;;14.18;10.15;;;;;;;9.36;nan;101896.53;5033323;28;20512;-44
2022/05/05 01:43:29;;;;;;;15.35;10.48;;;;;;;9.39;nan;101899.13;5015442;28;20072;-44
2022/05/05 01:45:54;;;;;;;14.52;10.35;;;;;;;9.40;nan;101904.34;5033294;28;20465;-42
2022/05/05 01:48:20;;;;;;;16.42;10.18;;;;;;;9.17;nan;101858.19;5033273;28;20065;-48
2022/05/05 01:50:48;;;;;;;15.18;10.70;;;;;;;9.43;nan;101892.94;5033238;28;20203;-44
2022/05/05 01:53:14;;;;;;;13.75;10.05;;;;;;;9.44;nan;101899.94;5033038;28;20080;-48
2022/05/05 01:55:39;;;;;;;13.38;9.90;;;;;;;9.45;nan;101896.44;5015519;28;20049;-48
2022/05/05 01:58:05;;;;;;;17.98;10.13;;;;;;;9.18;nan;101852.94;5033334;28;20459;-48
2022/05/05 02:00:31;;;;;;;17.08;10.98;;;;;;;9.10;nan;101843.38;5015410;28;20022;-44
2022/05/05 02:02:56;;;;;;;15.93;10.10;;;;;;;9.45;nan;101907.81;5032986;28;20103;-46
2022/05/05 02:05:22;;;;;;;17.05;10.25;;;;;;;9.40;nan;101913.97;5015233;28;20465;-44
2022/05/05 02:07:47;;;;;;;12.77;9.88;;;;;;;9.01;nan;101846.97;5032827;28;20374;-43
2022/05/05 02:10:15;;;;;;;15.18;9.30;;;;;;;9.24;nan;101900.16;5032547;28;20459;-49
2022/05/05 02:12:41;;;;;;;14.90;10.07;;;;;;;9.29;nan;101921.09;5015418;28;20427;-44
2022/05/05 02:15:08;;;;;;;11.50;9.30;;;;;;;9.25;nan;101928.16;5032937;28;20029;-45
2022/05/05 02:17:36;;;;;;;14.40;10.48;;;;;;;8.84;nan;101856.78;5033002;28;20079;-46
2022/05/05 02:20:04;;;;;;;12.32;9.90;;;;;;;8.97;nan;101890.78;4998590;28;20124;-44
2022/05/05 02:22:29;;;;;;;16.02;10.35;;;;;;;9.08;nan;101916.09;5014712;28;20079;-45
2022/05/05 02:24:55;;;;;;;16.85;9.98;;;;;;;9.02;nan;101912.59;5015161;28;20042;-46
2022/05/05 02:27:20;;;;;;;11.57;9.20;;;;;;;8.96;nan;101917.91;5014941;28;20030;-48
2022/05/05 02:29:46;;;;;;;18.40;10.05;;;;;;;8.83;nan;101900.53;5032576;28;20124;-46
2022/05/05 02:32:12;;;;;;;15.88;10.13;;;;;;;8.86;nan;101923.25;5032288;28;20405;-45
2022/05/05 02:34:38;;;;;;;18.88;10.63;;;;;;;8.79;nan;101914.56;5014746;28;20438;-47
2022/05/05 02:39:47;;;;;;;15.80;10.73;;;;;;;8.53;nan;101881.50;5031699;28;20111;-45
2022/05/05 02:42:12;;;;;;;16.15;11.15;;;;;;;8.33;nan;101864.19;5014624;28;20404;-48
2022/05/05 02:44:38;;;;;;;16.75;10.52;;;;;;;8.60;nan;101914.72;5032271;28;20053;-45
2022/05/05 02:47:04;;;;;;;19.27;11.13;;;;;;;8.61;nan;101921.72;5032254;28;20038;-45
2022/05/05 02:49:30;;;;;;;16.05;10.95;;;;;;;8.55;nan;101917.38;5031695;28;20056;-48
2022/05/05 02:51:55;;;;;;;15.02;10.40;;;;;;;8.45;nan;101915.69;5014430;28;20033;-45
2022/05/05 02:57:05;;;;;;;17.67;11.20;;;;;;;8.34;nan;101923.66;5032417;28;20053;-47
2022/05/05 02:59:30;;;;;;;18.52;11.63;;;;;;;8.33;nan;101918.38;5032302;28;20030;-46
2022/05/05 03:01:56;;;;;;;14.88;10.95;;;;;;;7.90;nan;101852.19;5032084;28;20043;-43
2022/05/05 03:04:21;;;;;;;15.77;11.10;;;;;;;7.91;nan;101856.53;5032017;28;20037;-46
2022/05/05 03:06:46;;;;;;;16.00;11.52;;;;;;;7.86;nan;101864.44;5032303;28;20167;-47
2022/05/05 03:09:11;;;;;;;14.13;11.27;;;;;;;7.81;nan;101852.22;5014495;28;20029;-44
2022/05/05 03:11:37;;;;;;;16.25;11.27;;;;;;;8.13;nan;101909.72;5014367;28;20374;-45
2022/05/05 03:14:02;;;;;;;16.73;10.57;;;;;;;8.09;nan;101915.84;5032030;28;20036;-46
2022/05/05 03:16:28;;;;;;;16.55;11.55;;;;;;;8.08;nan;101911.53;5031934;28;20088;-49
2022/05/05 03:18:53;;;;;;;17.63;11.40;;;;;;;8.03;nan;101903.66;5032010;28;20072;-46
2022/05/05 03:21:18;;;;;;;15.38;10.77;;;;;;;7.91;nan;101890.59;5032055;28;20061;-44
2022/05/05 03:23:44;;;;;;;16.52;11.95;;;;;;;8.07;nan;101912.38;5032135;28;20040;-45
2022/05/05 03:26:09;;;;;;;14.73;11.27;;;;;;;7.98;nan;101891.44;5031829;28;20510;-43
2022/05/05 03:28:34;;;;;;;19.75;11.25;;;;;;;8.07;nan;101907.13;5014402;28;20085;-44
2022/05/05 03:31:00;;;;;;;16.98;11.68;;;;;;;7.71;nan;101837.41;5031893;28;20478;-43
2022/05/05 03:33:25;;;;;;;14.52;10.85;;;;;;;8.09;nan;101902.75;5031795;28;20539;-44
2022/05/05 03:35:50;;;;;;;17.38;11.43;;;;;;;7.84;nan;101867.94;5031693;28;20057;-46
2022/05/05 03:38:15;;;;;;;15.90;11.38;;;;;;;8.03;nan;101890.53;5031809;28;20026;-45
2022/05/05 03:40:41;;;;;;;15.18;11.73;;;;;;;8.13;nan;101905.38;5031816;28;20030;-44
2022/05/05 03:43:06;;;;;;;19.08;12.65;;;;;;;8.11;nan;101908.88;5031583;28;20069;-44
2022/05/05 03:45:32;;;;;;;16.67;12.13;;;;;;;8.12;nan;101907.97;5013963;28;20127;-46
2022/05/05 03:47:57;;;;;;;17.17;12.35;;;;;;;8.11;nan;101907.13;5031700;28;20033;-45
2022/05/05 03:50:22;;;;;;;15.70;11.02;;;;;;;8.17;nan;101916.72;5033837;28;20058;-43
2022/05/05 03:52:48;;;;;;;18.88;11.90;;;;;;;8.17;nan;101908.84;5017932;28;20448;-45
2022/05/05 03:55:13;;;;;;;16.05;11.55;;;;;;;7.84;nan;101844.34;5035436;28;20061;-45
2022/05/05 03:57:38;;;;;;;15.38;11.63;;;;;;;8.20;nan;101909.69;5035437;28;20044;-43
2022/05/05 04:00:04;;;;;;;15.77;11.18;;;;;;;8.23;nan;101911.44;5017576;28;20424;-48
2022/05/05 04:02:30;;;;;;;14.88;11.27;;;;;;;7.86;nan;101847.81;5017302;28;20389;-49
2022/05/05 04:04:55;;;;;;;16.55;12.15;;;;;;;8.26;nan;101916.66;5017648;28;20048;-44
2022/05/05 04:07:21;;;;;;;16.83;12.05;;;;;;;8.28;nan;101915.81;5035226;28;20048;-48
2022/05/05 04:09:46;;;;;;;15.90;11.90;;;;;;;8.25;nan;101909.66;5035163;28;20029;-49
2022/05/05 04:12:12;;;;;;;15.00;11.57;;;;;;;8.34;nan;101920.16;5017389;28;20033;-46
2022/05/05 04:14:37;;;;;;;17.67;12.20;;;;;;;8.35;nan;101914.88;5017502;28;20037;-46
2022/05/05 04:17:03;;;;;;;15.52;12.38;;;;;;;8.42;nan;101919.22;5016991;28;20542;-45
2022/05/05 04:19:28;;;;;;;18.92;12.23;;;;;;;8.46;nan;101917.44;5034782;28;20094;-49
2022/05/05 04:21:54;;;;;;;18.00;12.60;;;;;;;8.50;nan;101911.28;5034763;28;20041;-49
2022/05/05 04:24:19;;;;;;;15.20;12.38;;;;;;;8.59;nan;101931.34;5034730;28;20033;-46
2022/05/05 04:26:45;;;;;;;16.58;11.80;;;;;;;8.49;nan;101904.31;5034843;28;20116;-46
2022/05/05 04:29:11;;;;;;;16.90;12.57;;;;;;;8.69;nan;101930.41;5034803;28;20037;-46
2022/05/05 04:31:36;;;;;;;17.08;12.30;;;;;;;8.70;nan;101919.03;5034575;28;20049;-45
2022/05/05 04:34:03;;;;;;;18.50;12.55;;;;;;;8.81;nan;101927.69;5034576;28;20083;-47
2022/05/05 04:36:34;;;;;;;17.13;12.27;;;;;;;8.85;nan;101934.63;5016926;28;20049;-45
2022/05/05 04:38:59;;;;;;;;;;;;;;;8.91;nan;101939.84;5018084;28;20072;-48
2022/05/05 04:41:25;;;;;;;16.30;12.32;;;;;;;8.66;nan;101880.56;5034355;28;19956;-45
2022/05/05 04:43:50;;;;;;;17.95;12.00;;;;;;;8.66;nan;101872.69;5016843;28;20081;-43
2022/05/05 04:46:15;;;;;;;13.48;11.15;;;;;;;9.05;nan;101932.72;5034155;28;20045;-47
2022/05/05 04:48:41;;;;;;;15.20;12.20;;;;;;;9.02;nan;101922.22;5016709;28;20036;-45
2022/05/05 04:51:06;;;;;;;16.27;11.57;;;;;;;8.83;nan;101890.03;5034443;28;20034;-46
2022/05/05 04:53:31;;;;;;;17.02;12.60;;;;;;;8.86;nan;101884.75;5034599;28;20033;-46
2022/05/05 04:55:57;;;;;;;17.35;12.20;;;;;;;8.98;nan;101896.91;5034223;28;20489;-46
2022/05/05 04:58:22;;;;;;;16.63;11.38;;;;;;;9.05;nan;101909.06;5034239;28;20044;-46
2022/05/05 05:00:48;;;;;;;18.85;11.85;;;;;;;9.41;nan;101949.91;5033487;28;20033;-46
2022/05/05 05:05:57;;;;;;;16.30;11.85;;;;;;;9.49;nan;101959.44;5033880;28;20052;-47
2022/05/05 05:08:22;;;;;;;15.70;11.65;;;;;;;9.56;nan;101953.25;5034049;28;20460;-48
2022/05/05 05:10:47;;;;;;;16.42;11.27;;;;;;;9.21;nan;101886.16;5016409;28;20061;-44
2022/05/05 05:13:12;;;;;;;16.38;11.98;;;;;;;9.63;nan;101967.22;5033655;28;20029;-45
2022/05/05 05:15:38;;;;;;;18.45;12.23;;;;;;;9.30;nan;101897.47;5033678;28;20053;-47
2022/05/05 05:18:03;;;;;;;20.23;12.23;;;;;;;9.69;nan;101959.22;5033712;28;20033;-44
2022/05/05 05:20:28;;;;;;;22.65;12.57;;;;;;;9.77;nan;101981.06;5033664;28;20044;-46
2022/05/05 05:22:54;;;;;;;17.42;12.05;;;;;;;9.82;nan;101984.50;5033677;28;20041;-46
2022/05/05 05:25:19;;;;;;;17.27;12.02;;;;;;;9.56;nan;101934.84;5015874;28;20044;-47
2022/05/05 05:27:44;;;;;;;15.90;11.38;;;;;;;9.92;nan;101982.66;5033619;28;20504;-45
2022/05/05 05:30:10;;;;;;;25.67;13.20;;;;;;;9.99;nan;101990.44;5033412;28;20037;-46
2022/05/05 05:32:37;;;;;;;19.65;12.93;;;;;;;10.03;nan;101992.16;5033658;28;20627;-43
2022/05/05 05:35:03;;;;;;;16.80;11.68;;;;;;;9.76;nan;101934.63;5033344;28;20037;-48
2022/05/05 05:37:28;;;;;;;23.27;12.38;;;;;;;9.79;nan;101938.97;5033145;28;20056;-46
2022/05/05 05:39:53;;;;;;;16.98;11.60;;;;;;;9.91;nan;101949.34;5033309;28;20518;-45
2022/05/05 05:42:19;;;;;;;18.95;14.43;;;;;;;10.25;nan;101998.06;5015615;28;20037;-45
2022/05/05 05:44:44;;;;;;;17.50;12.88;;;;;;;10.30;nan;101998.00;5015277;28;20053;-45
2022/05/05 05:47:10;;;;;;;17.48;12.68;;;;;;;10.37;nan;102005.78;5015738;28;20476;-44
2022/05/05 05:49:36;;;;;;;21.48;13.70;;;;;;;10.42;nan;102008.38;5033240;28;20064;-47
2022/05/05 05:52:01;;;;;;;19.08;12.90;;;;;;;10.41;nan;102004.00;5033188;28;20396;-49
2022/05/05 05:54:27;;;;;;;17.85;12.50;;;;;;;10.52;nan;102010.84;5032978;28;20040;-45
2022/05/05 05:56:52;;;;;;;18.00;12.70;;;;;;;10.59;nan;102017.78;5033164;28;20120;-46
2022/05/05 05:59:17;;;;;;;17.30;12.43;;;;;;;10.64;nan;102017.72;5015125;28;20057;-48
2022/05/05 06:04:27;;;;;;;20.55;13.60;;;;;;;10.45;nan;101959.19;5032964;28;20103;-46
2022/05/05 06:06:52;;;;;;;20.17;13.43;;;;;;;10.84;nan;102023.56;5032848;28;20037;-47
2022/05/05 06:09:17;;;;;;;17.08;12.07;;;;;;;10.95;nan;102024.28;5032652;28;20441;-46
2022/05/05 06:11:43;;;;;;;20.15;12.88;;;;;;;11.03;nan;102025.00;5032754;28;20038;-45
2022/05/05 06:14:09;;;;;;;21.00;13.93;;;;;;;11.11;nan;102027.56;5015149;28;20025;-44
2022/05/05 06:16:35;;;;;;;17.95;13.13;;;;;;;11.18;nan;102034.44;5032795;28;20041;-44
2022/05/05 06:19:00;;;;;;;21.65;12.65;;;;;;;11.23;nan;102037.91;5033058;28;20353;-44
2022/05/05 06:21:25;;;;;;;19.05;13.32;;;;;;;11.29;nan;102043.91;5032509;28;20029;-46
2022/05/05 06:23:51;;;;;;;16.90;13.10;;;;;;;11.37;nan;102048.22;5032397;28;20029;-44
2022/05/05 06:26:16;;;;;;;20.73;14.13;;;;;;;11.10;nan;101973.97;5032243;28;20037;-46
2022/05/05 06:28:41;;;;;;;19.08;13.93;;;;;;;11.49;nan;102037.47;5032516;28;20465;-45
2022/05/05 06:31:07;;;;;;;20.60;13.57;;;;;;;11.40;nan;102013.91;5032231;28;20033;-46
2022/05/05 06:33:32;;;;;;;18.30;13.35;;;;;;;11.27;nan;101978.94;5032494;28;20030;-46
2022/05/05 06:35:57;;;;;;;18.35;14.15;;;;;;;11.70;nan;102055.59;5032380;28;20120;-47
2022/05/05 06:38:24;;;;;;;19.98;14.85;;;;;;;11.55;nan;102022.41;5032306;28;20091;-46
2022/05/05 06:40:49;;;;;;;21.70;16.23;;;;;;;11.84;nan;102053.56;5032223;28;20037;-45
2022/05/05 06:43:15;;;;;;;23.23;15.52;;;;;;;11.91;nan;102057.81;5031902;28;20057;-44
2022/05/05 06:45:41;;;;;;;22.67;15.57;;;;;;;11.97;nan;102056.84;5032238;28;20040;-46
2022/05/05 06:48:06;;;;;;;24.33;15.70;;;;;;;12.07;nan;102063.69;5032350;28;20034;-44
2022/05/05 06:50:31;;;;;;;22.88;15.85;;;;;;;12.14;nan;102063.53;5032198;28;20062;-47
2022/05/05 06:53:00;;;;;;;23.80;15.82;;;;;;;12.25;nan;102069.50;5014549;28;20034;-46
2022/05/05 06:55:26;;;;;;;20.25;15.35;;;;;;;12.34;nan;102074.59;5032067;28;20400;-45
2022/05/05 06:57:51;;;;;;;21.38;15.90;;;;;;;12.43;nan;102078.81;5031126;28;20044;-42
2022/05/05 07:00:17;;;;;;;24.17;15.85;;;;;;;12.16;nan;102008.97;5032079;28;20392;-44
2022/05/05 07:02:42;;;;;;;23.23;16.35;;;;;;;12.56;nan;102067.09;5031847;28;20045;-52
2022/05/05 07:05:23;;;;;;;21.42;16.70;;;;;;;12.53;nan;102053.94;5013891;28;20037;-45
2022/05/05 07:07:49;;;;;;;26.17;16.83;;;;;;;12.73;nan;102078.16;5014746;28;20038;-49
2022/05/05 07:12:58;;;;;;;23.38;16.98;;;;;;;12.91;nan;102080.41;5016415;28;20507;-44
2022/05/05 07:15:24;;;;;;;27.90;17.55;;;;;;;13.01;nan;102088.13;5031657;28;20034;-48
2022/05/05 07:17:49;;;;;;;28.20;18.05;;;;;;;12.81;nan;102036.56;5031906;28;20037;-45
2022/05/05 07:20:14;;;;;;;29.73;19.17;;;;;;;13.09;nan;102079.16;5032107;28;20033;-43
2022/05/05 07:22:40;;;;;;;26.33;19.02;;;;;;;12.92;nan;102029.28;5031608;28;20076;-48
2022/05/05 07:25:07;;;;;;;28.05;19.90;;;;;;;12.97;nan;102034.47;5033354;28;20036;-44
2022/05/05 07:27:32;;;;;;;27.27;19.40;;;;;;;13.08;nan;102031.59;5035874;28;20045;-46
2022/05/05 07:29:57;;;;;;;31.13;21.45;;;;;;;13.18;nan;102027.84;5035725;28;20033;-44
2022/05/05 07:32:23;;;;;;;27.63;19.73;;;;;;;13.61;nan;102088.47;5035619;28;20116;-45
2022/05/05 07:34:48;;;;;;;29.27;18.63;;;;;;;13.69;nan;102092.66;5035569;28;20041;-45
2022/05/05 07:37:13;;;;;;;26.52;19.27;;;;;;;13.78;nan;102094.19;5035492;28;20469;-44
2022/05/05 07:39:39;;;;;;;29.17;20.00;;;;;;;13.57;nan;102045.38;5035731;28;20038;-48
2022/05/05 07:42:04;;;;;;;32.67;23.38;;;;;;;13.97;nan;102092.81;5035418;28;20044;-45
2022/05/05 07:44:30;;;;;;;33.22;24.17;;;;;;;14.01;nan;102075.94;5017748;28;20042;-44
2022/05/05 07:46:56;;;;;;;41.90;29.27;;;;;;;13.88;nan;102051.59;5035448;28;20045;-50
2022/05/05 07:49:22;;;;;;;42.10;29.77;;;;;;;14.31;nan;102101.59;5035257;28;20115;-44
2022/05/05 07:51:51;;;;;;;45.70;33.47;;;;;;;13.81;nan;102014.72;5017579;28;20069;-45
2022/05/05 07:54:35;;;;;;;43.70;32.45;;;;;;;14.54;nan;102122.16;5035503;28;20123;-45
2022/05/05 07:57:01;;;;;;;44.38;33.97;;;;;;;14.42;nan;102073.03;5017643;28;20300;-45
2022/05/05 07:59:26;;;;;;;48.35;32.80;;;;;;;14.74;nan;102122.44;5035251;28;20033;-49
2022/05/05 08:01:51;;;;;;;46.05;33.92;;;;;;;14.48;nan;102058.75;5033723;28;20056;-46
2022/05/05 08:04:17;;;;;;;45.90;34.15;;;;;;;14.58;nan;102068.16;5016809;28;20033;-46
2022/05/05 08:06:42;;;;;;;45.33;33.08;;;;;;;15.01;nan;102134.91;5034950;28;20045;-46
2022/05/05 08:09:08;;;;;;;46.75;32.70;;;;;;;15.07;nan;102137.38;5034664;28;20392;-50
2022/05/05 08:11:35;;;;;;;46.25;32.95;;;;;;;14.93;nan;102086.53;5035032;28;20179;-47
2022/05/05 08:14:00;;;;;;;47.15;33.03;;;;;;;15.32;nan;102131.31;5035140;28;20484;-47
2022/05/05 08:16:26;;;;;;;43.53;32.03;;;;;;;15.19;nan;102091.91;5034989;28;20115;-46
2022/05/05 08:18:51;;;;;;;44.92;31.92;;;;;;;15.56;nan;102138.50;5034866;28;20059;-42
2022/05/05 08:21:16;;;;;;;44.80;32.67;;;;;;;15.69;nan;102148.69;5034879;28;20096;-47
2022/05/05 08:23:42;;;;;;;44.65;32.35;;;;;;;15.93;nan;102146.13;5034921;28;20456;-45
2022/05/05 08:28:51;;;;;;;40.75;31.52;;;;;;;16.17;nan;102159.41;5034858;28;20569;-47
2022/05/05 08:31:17;;;;;;;43.22;32.08;;;;;;;16.41;nan;102152.38;5034405;28;20057;-48
2022/05/05 08:33:43;;;;;;;41.83;32.67;;;;;;;16.55;nan;102165.22;5034900;28;20388;-47
2022/05/05 08:36:09;;;;;;;41.63;32.50;;;;;;;16.44;nan;102111.53;5015527;28;20042;-46
2022/05/05 08:38:34;;;;;;;47.33;33.58;;;;;;;16.85;nan;102154.31;5034472;28;20266;-47
2022/05/05 08:41:00;;;;;;;44.45;33.15;;;;;;;17.11;nan;102158.63;5034414;28;20473;-45
2022/05/05 08:43:26;;;;;;;41.97;31.85;;;;;;;17.11;nan;102158.63;5033864;28;20141;-46
2022/05/05 08:45:53;;;;;;;45.97;32.10;;;;;;;17.18;nan;102132.66;5034285;28;20064;-43
2022/05/05 08:48:19;;;;;;;42.75;32.58;;;;;;;17.34;nan;102129.34;5034447;28;20385;-45
2022/05/05 08:50:46;;;;;;;47.35;31.52;;;;;;;17.39;nan;102139.81;5034618;28;20025;-47
2022/05/05 08:53:14;;;;;;;43.17;31.83;;;;;;;17.67;nan;102184.84;5016658;28;20487;-46
2022/05/05 08:55:39;;;;;;;44.83;31.83;;;;;;;17.77;nan;102186.22;5016617;28;20037;-47
2022/05/05 08:58:04;;;;;;;41.65;30.20;;;;;;;17.86;nan;102169.88;5016526;28;20525;-45
2022/05/05 09:00:30;;;;;;;43.42;32.08;;;;;;;17.95;nan;102196.09;5033808;28;20034;-44
2022/05/05 09:02:59;;;;;;;48.28;32.42;;;;;;;18.03;nan;102195.78;5034250;28;20116;-46
2022/05/05 09:05:43;;;;;;;40.88;31.95;;;;;;;18.21;nan;102192.34;5000447;28;20384;-50
2022/05/05 09:08:27;;;;;;;40.22;30.85;;;;;;;18.05;nan;102159.28;5033931;28;20108;-43
2022/05/05 09:10:54;;;;;;;38.42;30.30;;;;;;;18.16;nan;102159.69;5033666;28;20025;-47
2022/05/05 09:13:24;;;;;;;40.78;32.83;;;;;;;18.30;nan;102183.97;5016260;28;20048;-44
2022/05/05 09:15:51;;;;;;;48.03;35.03;;;;;;;18.33;nan;102203.34;5032943;28;20120;-44
2022/05/05 09:18:25;;;;;;;45.45;32.10;;;;;;;18.34;nan;102204.22;5033627;28;20497;-46
2022/05/05 09:20:51;;;;;;;39.40;31.20;;;;;;;18.38;nan;102217.34;5033534;28;20345;-48
2022/05/05 09:23:29;;;;;;;36.17;28.20;;;;;;;18.39;nan;102212.88;5032887;28;20034;-47
2022/05/05 09:25:55;;;;;;;42.42;31.92;;;;;;;18.42;nan;102213.59;5032551;28;20124;-44
2022/05/05 09:28:23;;;;;;;47.42;32.60;;;;;;;18.17;nan;102156.09;5033489;28;20125;-41
2022/05/05 09:30:52;;;;;;;42.35;32.90;;;;;;;18.58;nan;102211.19;5033680;28;20091;-46
2022/05/05 09:33:42;;;;;;;42.65;32.58;;;;;;;18.80;nan;102221.75;5015788;28;20087;-41
2022/05/05 09:36:09;;;;;;;39.28;31.63;;;;;;;18.96;nan;102214.81;5033507;28;20037;-48
2022/05/05 09:39:00;;;;;;;39.80;31.85;;;;;;;19.01;nan;102227.00;5032579;28;20115;-46
2022/05/05 09:41:26;;;;;;;44.60;33.10;;;;;;;19.07;nan;102228.53;5024693;28;20064;-51
2022/05/05 09:44:16;;;;;;;38.83;31.42;;;;;;;19.12;nan;102225.66;5032875;28;20447;-49
2022/05/05 09:46:43;;;;;;;43.63;32.92;;;;;;;18.91;nan;102168.81;5027590;28;20029;-44
2022/05/05 09:49:19;;;;;;;43.33;31.17;;;;;;;19.39;nan;102219.91;5028809;28;20106;-45
2022/05/05 09:57:41;;;;;;;30.95;26.67;;;;;;;19.91;nan;102239.63;5032170;28;20052;-43
2022/05/05 10:00:23;;;;;;;35.35;26.25;;;;;;;20.02;nan;102239.13;5032421;28;20038;-47
2022/05/05 10:05:36;;;;;;;35.22;27.67;;;;;;;19.81;nan;102249.06;5015161;28;20048;-43
2022/05/05 10:08:02;;;;;;;37.75;28.55;;;;;;;19.86;nan;102239.00;5019393;28;20041;-46
2022/05/05 10:10:28;;;;;;;35.58;28.08;;;;;;;19.59;nan;102238.53;5013098;28;20052;-45
2022/05/05 10:12:57;;;;;;;32.08;27.20;;;;;;;19.40;nan;102186.94;5036558;28;20038;-45
2022/05/05 10:15:23;;;;;;;33.40;26.42;;;;;;;19.67;nan;102243.53;5009441;28;20061;-44
2022/05/05 10:17:49;;;;;;;27.77;23.77;;;;;;;19.88;nan;102247.81;5011848;28;20057;-45
2022/05/05 10:20:14;;;;;;;28.98;25.27;;;;;;;20.01;nan;102246.28;4994643;28;20038;-44
2022/05/05 10:22:52;;;;;;;32.47;25.70;;;;;;;19.76;nan;102200.31;5001570;28;20045;-45
2022/05/05 10:25:22;;;;;;;28.15;23.17;;;;;;;20.15;nan;102243.78;5014769;28;20093;-46
2022/05/05 10:27:48;;;;;;;30.88;24.15;;;;;;;20.23;nan;102238.03;4998425;28;20037;-42
2022/05/05 10:30:19;;;;;;;32.50;23.70;;;;;;;20.33;nan;102250.03;5014823;28;20396;-47
2022/05/05 10:32:44;;;;;;;35.08;26.60;;;;;;;20.14;nan;102187.69;5031355;28;20037;-45
2022/05/05 10:35:13;;;;;;;29.35;23.63;;;;;;;20.55;nan;102247.97;5032092;28;20033;-51
2022/05/05 10:37:39;;;;;;;30.60;25.25;;;;;;;20.50;nan;102255.38;5010720;28;20401;-47
2022/05/05 10:40:09;;;;;;;30.85;24.08;;;;;;;20.13;nan;102192.22;5016152;28;20103;-46
2022/05/05 10:42:45;;;;;;;28.73;24.60;;;;;;;20.07;nan;102192.50;5014451;28;20045;-48
2022/05/05 10:45:12;;;;;;;25.58;20.60;;;;;;;20.54;nan;102248.94;5027910;28;20336;-46
2022/05/05 10:47:46;;;;;;;27.33;22.75;;;;;;;20.56;nan;102267.59;5050729;28;20025;-45
2022/05/05 10:50:28;;;;;;;31.13;25.58;;;;;;;20.10;nan;102189.69;5043602;28;20092;-44
2022/05/05 10:52:54;;;;;;;27.67;24.50;;;;;;;20.23;nan;102246.94;5030746;28;20609;-45
2022/05/05 10:55:26;;;;;;;29.00;25.02;;;;;;;20.22;nan;102263.06;5031414;28;20068;-45
2022/05/05 10:57:52;;;;;;;28.75;25.00;;;;;;;20.32;nan;102256.31;5030010;28;20041;-47
2022/05/05 11:00:18;;;;;;;26.65;23.85;;;;;;;20.48;nan;102251.06;5012916;28;20555;-45
2022/05/05 11:02:58;;;;;;;31.70;25.83;;;;;;;20.34;nan;102235.75;5031569;28;20136;-43
2022/05/05 11:05:26;;;;;;;29.27;26.17;;;;;;;20.52;nan;102272.22;5029480;28;20083;-45
2022/05/05 11:07:51;;;;;;;32.50;28.98;;;;;;;20.39;nan;102219.44;5030516;28;20053;-46
2022/05/05 11:11:40;;;;;;;32.00;28.63;;;;;;;20.80;nan;102252.06;5013650;28;20423;-46
2022/05/05 11:13:47;;;;;;;33.65;27.38;;;;;;;21.17;nan;102252.72;5030721;28;20124;-47
2022/05/05 11:22:13;;;;;;;33.53;27.95;;;;;;;21.82;nan;102256.25;5031626;28;20045;-48
2022/05/05 11:24:41;;;;;;;26.38;23.55;;;;;;;22.02;nan;102220.28;5032014;28;20037;-47
2022/05/05 11:27:23;;;;;;;23.08;20.67;;;;;;;23.03;nan;102266.94;5031906;28;20104;-45
2022/05/05 11:29:50;;;;;;;22.98;20.30;;;;;;;23.55;nan;102262.75;5031858;28;20033;-48
2022/05/05 11:32:16;;;;;;;23.55;21.05;;;;;;;23.38;nan;102220.78;5032245;28;20065;-47
2022/05/05 11:34:41;;;;;;;21.83;19.52;;;;;;;23.70;nan;102268.94;5031697;28;20038;-45
2022/05/05 11:37:08;;;;;;;22.27;19.88;;;;;;;23.65;nan;102271.06;5031969;28;20051;-45
2022/05/05 11:39:35;;;;;;;22.02;19.70;;;;;;;23.01;nan;102236.63;5014107;28;20044;-43
2022/05/05 11:42:08;;;;;;;23.05;20.58;;;;;;;22.66;nan;102282.59;5014102;28;20065;-43
2022/05/05 11:44:44;;;;;;;21.17;18.63;;;;;;;22.28;nan;102268.75;5031813;28;20179;-44
2022/05/05 11:47:13;;;;;;;23.35;20.33;;;;;;;22.09;nan;102273.47;5013898;28;20434;-48
2022/05/05 11:49:40;;;;;;;22.00;19.80;;;;;;;21.63;nan;102264.44;5031993;28;20060;-43
2022/05/05 11:52:06;;;;;;;21.00;18.75;;;;;;;21.89;nan;102259.47;5014364;28;20052;-44
2022/05/05 11:54:32;;;;;;;23.65;19.73;;;;;;;21.65;nan;102221.50;5013843;28;20465;-44
2022/05/05 11:56:59;;;;;;;24.20;20.50;;;;;;;22.02;nan;102265.84;5031558;28;20124;-44
2022/05/05 12:02:15;;;;;;;24.88;21.92;;;;;;;21.52;nan;102263.31;5031690;28;20041;-45
2022/05/05 12:04:41;;;;;;;23.40;20.70;;;;;;;21.67;nan;102268.69;5031807;28;20036;-45
2022/05/05 12:07:09;;;;;;;22.23;19.30;;;;;;;21.54;nan;102269.47;5031395;28;20136;-43
2022/05/05 12:09:36;;;;;;;23.10;19.70;;;;;;;20.68;nan;102224.16;5013861;28;20420;-45